Havre-Aubert, Canada
Current Conditions -  °F | °C
As of 7:00 AM on Monday 20 Oct 2014 (Local Time) from CYGR Reporting Station
Light Rain Light Rain  
Wind Chill: 39°   Ceiling: 900
Heat Index: 46°   Visibility: 10mi
Dew Point: 43°   Wind: 22mph
Humidity: 87%   Direction: 330°NNW
Pressure: 29.41"   Gusts: 30mph
Location:  47.23°N, 61.85°W
Report Text: CYGR 201000Z 33019G26KT 10SM -RA OVC009 08/06 A2941 RMK SC8 SLP959
Loading
Personal Weather Stations






























Interactive Weather Map
Tropical Storm Tracking
New forecast layout! Learn more

10-Day Weather Forecast

Advertisements
Track Severe Weather on mobile